Pagrindinis puslapis
METAR-TAF:

METAR-TAF

Oro uostai :

Phetčabunas, Tailandas

platuma: 16-40-33N, ilguma: 101-11-42E, Aukštis: 137 m

Dabartinis oras

Ataskaita buvo paskelbta 9 valandos ir 9 minutes, ne 11:00 UTC
Ramus vėjas
Temperatūra 28°C
Drėgmė 74%
Slėgis 1008 hPa
Matomumas 10 km arba daugiau
Išsisklaidę debesys ne aukštis 2500 ft

METAR: VTPB 221100Z 00000KT 9999 SCT025 28/23 Q1008 NOSIG

Laikas: 03:09 (20:09 UTC)

Prognozė

Ataskaita buvo paskelbta 3 valandos ir 9 minutes, ne 17:00 UTC
Prognozė galioja nuo 22 metu 18 UTC su 23 metu 18 UTC
Vėjas 5 kt iš Šiaurės
Matomumas 10 km arba daugiau
Mažai debesys ne aukštis 2500 ft

TAF: VTPB 221700Z 2218/2318 36005KT 9999 FEW025

Orai ataskaitas ir orų prognozės (METAR, TAF).

turimą stotys yra geltonos ir raudonos taškus žemėlapyje.

Perkelti pele per norėdami pamatyti stoties vardą.

Tada spustelėkite, norėdami matyti oro stebėjimo ir prognozės.

Norėdami pakeisti žemėlapį: spustelėkite ant žalios mygtukų su juodo kryžiaus žemyn,; žalią mygtuką su brūkšneliu, jei norite nutolinti; arba žalių rodyklių gretimoms žemėlapius.


METAR-TAF: